sensor_id;sensor_type;location;lat;lon;timestamp;temperature;humidity
10883;DHT22;5494;51.796;10.952;2024-03-07T00:01:23;5.20;1.00
10883;DHT22;5494;51.796;10.952;2024-03-07T00:03:53;5.20;1.00
10883;DHT22;5494;51.796;10.952;2024-03-07T00:06:22;5.10;1.00
10883;DHT22;5494;51.796;10.952;2024-03-07T00:08:50;5.10;1.00
10883;DHT22;5494;51.796;10.952;2024-03-07T00:11:18;5.10;1.00
10883;DHT22;5494;51.796;10.952;2024-03-07T00:13:47;5.10;1.00
10883;DHT22;5494;51.796;10.952;2024-03-07T00:16:17;5.10;1.00
10883;DHT22;5494;51.796;10.952;2024-03-07T00:18:45;5.10;1.00
10883;DHT22;5494;51.796;10.952;2024-03-07T00:21:13;5.10;1.00
10883;DHT22;5494;51.796;10.952;2024-03-07T00:23:42;5.10;1.00
10883;DHT22;5494;51.796;10.952;2024-03-07T00:26:10;5.20;1.00
10883;DHT22;5494;51.796;10.952;2024-03-07T00:28:38;5.20;1.00
10883;DHT22;5494;51.796;10.952;2024-03-07T00:31:06;5.20;1.00
10883;DHT22;5494;51.796;10.952;2024-03-07T00:33:37;6.70;1.00
10883;DHT22;5494;51.796;10.952;2024-03-07T00:36:25;5.20;1.00
10883;DHT22;5494;51.796;10.952;2024-03-07T00:38:53;5.20;1.00
10883;DHT22;5494;51.796;10.952;2024-03-07T00:41:21;5.20;1.00
10883;DHT22;5494;51.796;10.952;2024-03-07T00:43:49;5.30;1.00
10883;DHT22;5494;51.796;10.952;2024-03-07T00:46:18;5.30;1.00
10883;DHT22;5494;51.796;10.952;2024-03-07T00:48:47;5.40;1.00
10883;DHT22;5494;51.796;10.952;2024-03-07T00:51:15;5.40;1.00
10883;DHT22;5494;51.796;10.952;2024-03-07T00:53:43;5.40;1.00
10883;DHT22;5494;51.796;10.952;2024-03-07T00:56:11;5.40;1.00
10883;DHT22;5494;51.796;10.952;2024-03-07T00:58:39;5.40;1.00
10883;DHT22;5494;51.796;10.952;2024-03-07T01:01:07;5.40;1.00
10883;DHT22;5494;51.796;10.952;2024-03-07T01:03:35;5.40;1.00
10883;DHT22;5494;51.796;10.952;2024-03-07T01:06:05;5.30;1.00
10883;DHT22;5494;51.796;10.952;2024-03-07T01:08:34;5.30;1.00
10883;DHT22;5494;51.796;10.952;2024-03-07T01:11:03;4.90;1.00
10883;DHT22;5494;51.796;10.952;2024-03-07T01:13:36;5.40;1.00
10883;DHT22;5494;51.796;10.952;2024-03-07T01:16:04;5.30;1.00
10883;DHT22;5494;51.796;10.952;2024-03-07T01:18:33;5.30;1.00
10883;DHT22;5494;51.796;10.952;2024-03-07T01:21:05;5.40;1.00
10883;DHT22;5494;51.796;10.952;2024-03-07T01:23:35;5.50;1.00
10883;DHT22;5494;51.796;10.952;2024-03-07T01:26:03;5.40;1.00
10883;DHT22;5494;51.796;10.952;2024-03-07T01:28:31;5.40;1.00
10883;DHT22;5494;51.796;10.952;2024-03-07T01:30:59;5.50;1.00
10883;DHT22;5494;51.796;10.952;2024-03-07T01:33:27;5.50;1.00
10883;DHT22;5494;51.796;10.952;2024-03-07T01:35:55;5.50;1.00
10883;DHT22;5494;51.796;10.952;2024-03-07T01:38:24;5.50;1.00
10883;DHT22;5494;51.796;10.952;2024-03-07T01:40:53;5.50;1.00
10883;DHT22;5494;51.796;10.952;2024-03-07T01:43:21;5.50;1.00
10883;DHT22;5494;51.796;10.952;2024-03-07T01:45:53;5.50;1.00
10883;DHT22;5494;51.796;10.952;2024-03-07T01:48:26;5.50;1.00
10883;DHT22;5494;51.796;10.952;2024-03-07T01:50:57;5.40;1.00
10883;DHT22;5494;51.796;10.952;2024-03-07T01:53:29;5.40;1.00
10883;DHT22;5494;51.796;10.952;2024-03-07T01:55:59;5.40;1.00
10883;DHT22;5494;51.796;10.952;2024-03-07T01:58:30;5.40;1.00
10883;DHT22;5494;51.796;10.952;2024-03-07T02:00:59;5.50;1.00
10883;DHT22;5494;51.796;10.952;2024-03-07T02:03:28;5.50;1.00
10883;DHT22;5494;51.796;10.952;2024-03-07T02:05:56;5.50;1.00
10883;DHT22;5494;51.796;10.952;2024-03-07T02:08:25;5.50;1.00
10883;DHT22;5494;51.796;10.952;2024-03-07T02:10:55;5.50;1.00
10883;DHT22;5494;51.796;10.952;2024-03-07T02:13:23;5.50;1.00
10883;DHT22;5494;51.796;10.952;2024-03-07T02:15:51;5.50;1.00
10883;DHT22;5494;51.796;10.952;2024-03-07T02:18:20;5.50;15.10
10883;DHT22;5494;51.796;10.952;2024-03-07T02:20:49;5.40;33.50
10883;DHT22;5494;51.796;10.952;2024-03-07T02:23:18;5.50;26.20
10883;DHT22;5494;51.796;10.952;2024-03-07T02:25:46;5.50;17.80
10883;DHT22;5494;51.796;10.952;2024-03-07T02:28:14;5.50;24.40
10883;DHT22;5494;51.796;10.952;2024-03-07T02:30:42;5.50;27.40
10883;DHT22;5494;51.796;10.952;2024-03-07T02:33:13;5.50;40.80
10883;DHT22;5494;51.796;10.952;2024-03-07T02:35:44;5.40;43.10
10883;DHT22;5494;51.796;10.952;2024-03-07T02:38:13;5.30;76.80
10883;DHT22;5494;51.796;10.952;2024-03-07T02:40:41;5.30;99.90
10883;DHT22;5494;51.796;10.952;2024-03-07T02:43:09;5.40;92.10
10883;DHT22;5494;51.796;10.952;2024-03-07T02:45:38;5.40;44.80
10883;DHT22;5494;51.796;10.952;2024-03-07T02:48:06;5.50;52.60
10883;DHT22;5494;51.796;10.952;2024-03-07T02:50:37;5.50;26.80
10883;DHT22;5494;51.796;10.952;2024-03-07T02:53:05;5.50;33.00
10883;DHT22;5494;51.796;10.952;2024-03-07T02:55:35;5.50;38.50
10883;DHT22;5494;51.796;10.952;2024-03-07T02:58:04;5.50;78.30
10883;DHT22;5494;51.796;10.952;2024-03-07T03:00:33;5.50;40.70
10883;DHT22;5494;51.796;10.952;2024-03-07T03:03:02;5.50;83.90
10883;DHT22;5494;51.796;10.952;2024-03-07T03:05:30;5.50;92.00
10883;DHT22;5494;51.796;10.952;2024-03-07T03:07:58;5.50;91.40
10883;DHT22;5494;51.796;10.952;2024-03-07T03:10:27;5.40;87.20
10883;DHT22;5494;51.796;10.952;2024-03-07T03:12:57;5.40;99.90
10883;DHT22;5494;51.796;10.952;2024-03-07T03:15:27;5.50;99.90
10883;DHT22;5494;51.796;10.952;2024-03-07T03:17:56;5.50;93.70
10883;DHT22;5494;51.796;10.952;2024-03-07T03:20:27;5.50;96.80
10883;DHT22;5494;51.796;10.952;2024-03-07T03:23:01;5.60;79.50
10883;DHT22;5494;51.796;10.952;2024-03-07T03:25:45;5.50;98.40
10883;DHT22;5494;51.796;10.952;2024-03-07T03:28:17;5.50;99.90
10883;DHT22;5494;51.796;10.952;2024-03-07T03:30:47;5.40;99.90
10883;DHT22;5494;51.796;10.952;2024-03-07T03:33:16;5.40;99.90
10883;DHT22;5494;51.796;10.952;2024-03-07T03:35:44;5.50;99.90
10883;DHT22;5494;51.796;10.952;2024-03-07T03:38:13;5.50;99.90
10883;DHT22;5494;51.796;10.952;2024-03-07T03:40:42;5.50;99.90
10883;DHT22;5494;51.796;10.952;2024-03-07T03:43:12;5.40;99.90
10883;DHT22;5494;51.796;10.952;2024-03-07T03:45:41;5.50;99.90
10883;DHT22;5494;51.796;10.952;2024-03-07T03:48:09;5.60;99.90
10883;DHT22;5494;51.796;10.952;2024-03-07T03:50:38;5.60;99.90
10883;DHT22;5494;51.796;10.952;2024-03-07T03:53:07;5.50;99.90
10883;DHT22;5494;51.796;10.952;2024-03-07T03:55:35;5.40;99.90
10883;DHT22;5494;51.796;10.952;2024-03-07T03:58:04;5.40;99.90
10883;DHT22;5494;51.796;10.952;2024-03-07T04:00:33;5.30;99.90
10883;DHT22;5494;51.796;10.952;2024-03-07T04:03:02;5.30;99.90
10883;DHT22;5494;51.796;10.952;2024-03-07T04:05:31;5.30;99.90
10883;DHT22;5494;51.796;10.952;2024-03-07T04:07:59;5.40;99.90
10883;DHT22;5494;51.796;10.952;2024-03-07T04:10:27;5.40;99.90
10883;DHT22;5494;51.796;10.952;2024-03-07T04:12:56;5.30;99.90
10883;DHT22;5494;51.796;10.952;2024-03-07T04:15:25;5.40;99.90
10883;DHT22;5494;51.796;10.952;2024-03-07T04:17:59;5.40;99.90
10883;DHT22;5494;51.796;10.952;2024-03-07T04:20:33;5.30;99.90
10883;DHT22;5494;51.796;10.952;2024-03-07T04:23:01;5.30;99.90
10883;DHT22;5494;51.796;10.952;2024-03-07T04:25:30;5.30;99.90
10883;DHT22;5494;51.796;10.952;2024-03-07T04:27:59;5.30;99.90
10883;DHT22;5494;51.796;10.952;2024-03-07T04:30:27;5.30;99.90
10883;DHT22;5494;51.796;10.952;2024-03-07T04:32:55;5.20;99.90
10883;DHT22;5494;51.796;10.952;2024-03-07T04:35:25;5.20;99.90
10883;DHT22;5494;51.796;10.952;2024-03-07T04:37:55;5.20;99.90
10883;DHT22;5494;51.796;10.952;2024-03-07T04:40:24;5.10;99.90
10883;DHT22;5494;51.796;10.952;2024-03-07T04:42:52;5.10;99.90
10883;DHT22;5494;51.796;10.952;2024-03-07T04:45:20;5.10;99.90
10883;DHT22;5494;51.796;10.952;2024-03-07T04:47:48;5.10;99.90
10883;DHT22;5494;51.796;10.952;2024-03-07T04:50:17;5.10;99.90
10883;DHT22;5494;51.796;10.952;2024-03-07T04:52:47;5.00;99.90
10883;DHT22;5494;51.796;10.952;2024-03-07T04:55:18;5.00;99.90
10883;DHT22;5494;51.796;10.952;2024-03-07T04:57:46;5.00;99.90
10883;DHT22;5494;51.796;10.952;2024-03-07T05:00:15;5.00;99.90
10883;DHT22;5494;51.796;10.952;2024-03-07T05:02:48;5.00;99.90
10883;DHT22;5494;51.796;10.952;2024-03-07T05:05:18;5.00;99.90
10883;DHT22;5494;51.796;10.952;2024-03-07T05:07:50;5.00;99.90
10883;DHT22;5494;51.796;10.952;2024-03-07T05:10:20;4.90;99.90
10883;DHT22;5494;51.796;10.952;2024-03-07T05:12:48;4.90;99.90
10883;DHT22;5494;51.796;10.952;2024-03-07T05:15:17;4.90;99.90
10883;DHT22;5494;51.796;10.952;2024-03-07T05:17:50;4.90;99.90
10883;DHT22;5494;51.796;10.952;2024-03-07T05:20:19;5.00;99.90
10883;DHT22;5494;51.796;10.952;2024-03-07T05:22:47;5.00;99.90
10883;DHT22;5494;51.796;10.952;2024-03-07T05:25:18;5.00;99.90
10883;DHT22;5494;51.796;10.952;2024-03-07T05:27:48;5.00;99.90
10883;DHT22;5494;51.796;10.952;2024-03-07T05:30:17;5.00;99.90
10883;DHT22;5494;51.796;10.952;2024-03-07T05:32:46;5.00;99.90
10883;DHT22;5494;51.796;10.952;2024-03-07T05:35:15;5.00;99.90
10883;DHT22;5494;51.796;10.952;2024-03-07T05:37:47;5.00;99.90
10883;DHT22;5494;51.796;10.952;2024-03-07T05:40:17;5.00;99.90
10883;DHT22;5494;51.796;10.952;2024-03-07T05:42:45;5.10;99.90
10883;DHT22;5494;51.796;10.952;2024-03-07T05:45:15;5.00;99.90
10883;DHT22;5494;51.796;10.952;2024-03-07T05:47:45;5.00;99.90
10883;DHT22;5494;51.796;10.952;2024-03-07T05:50:14;5.00;99.90
10883;DHT22;5494;51.796;10.952;2024-03-07T05:52:43;5.00;99.90
10883;DHT22;5494;51.796;10.952;2024-03-07T05:55:11;5.20;99.90
10883;DHT22;5494;51.796;10.952;2024-03-07T05:57:39;5.10;99.90
10883;DHT22;5494;51.796;10.952;2024-03-07T06:00:13;5.00;99.90
10883;DHT22;5494;51.796;10.952;2024-03-07T06:02:42;5.10;99.90
10883;DHT22;5494;51.796;10.952;2024-03-07T06:05:10;5.10;99.90
10883;DHT22;5494;51.796;10.952;2024-03-07T06:07:43;5.10;99.90
10883;DHT22;5494;51.796;10.952;2024-03-07T06:10:13;5.20;99.90
10883;DHT22;5494;51.796;10.952;2024-03-07T06:12:43;5.20;99.90
10883;DHT22;5494;51.796;10.952;2024-03-07T06:15:32;5.10;99.90
10883;DHT22;5494;51.796;10.952;2024-03-07T06:18:01;5.10;99.90
10883;DHT22;5494;51.796;10.952;2024-03-07T06:20:29;5.10;99.90
10883;DHT22;5494;51.796;10.952;2024-03-07T06:22:58;5.00;99.90
10883;DHT22;5494;51.796;10.952;2024-03-07T06:25:30;5.00;99.90
10883;DHT22;5494;51.796;10.952;2024-03-07T06:28:04;5.10;99.90
10883;DHT22;5494;51.796;10.952;2024-03-07T06:30:41;5.10;99.90
10883;DHT22;5494;51.796;10.952;2024-03-07T06:33:10;5.10;99.90
10883;DHT22;5494;51.796;10.952;2024-03-07T06:35:39;5.10;99.90
10883;DHT22;5494;51.796;10.952;2024-03-07T06:38:09;5.10;99.90
10883;DHT22;5494;51.796;10.952;2024-03-07T06:40:38;5.10;99.90
10883;DHT22;5494;51.796;10.952;2024-03-07T06:43:09;5.00;99.90
10883;DHT22;5494;51.796;10.952;2024-03-07T06:45:39;5.10;99.90
10883;DHT22;5494;51.796;10.952;2024-03-07T06:48:08;5.30;99.90
10883;DHT22;5494;51.796;10.952;2024-03-07T06:50:37;5.20;99.90
10883;DHT22;5494;51.796;10.952;2024-03-07T06:53:06;5.10;99.90
10883;DHT22;5494;51.796;10.952;2024-03-07T06:55:35;5.10;99.90
10883;DHT22;5494;51.796;10.952;2024-03-07T06:58:05;5.10;99.90
10883;DHT22;5494;51.796;10.952;2024-03-07T07:00:33;5.00;99.90
10883;DHT22;5494;51.796;10.952;2024-03-07T07:03:06;4.90;99.90
10883;DHT22;5494;51.796;10.952;2024-03-07T07:05:34;4.80;99.90
10883;DHT22;5494;51.796;10.952;2024-03-07T07:08:03;4.80;99.90
10883;DHT22;5494;51.796;10.952;2024-03-07T07:10:34;4.70;99.90
10883;DHT22;5494;51.796;10.952;2024-03-07T07:13:04;4.80;99.90
10883;DHT22;5494;51.796;10.952;2024-03-07T07:15:32;4.80;99.90
10883;DHT22;5494;51.796;10.952;2024-03-07T07:18:01;4.90;99.90
10883;DHT22;5494;51.796;10.952;2024-03-07T07:20:31;5.00;99.90
10883;DHT22;5494;51.796;10.952;2024-03-07T07:23:01;5.00;99.90
10883;DHT22;5494;51.796;10.952;2024-03-07T07:25:30;5.70;99.90
10883;DHT22;5494;51.796;10.952;2024-03-07T07:27:59;5.00;99.90
10883;DHT22;5494;51.796;10.952;2024-03-07T07:30:31;5.00;99.90
10883;DHT22;5494;51.796;10.952;2024-03-07T07:33:00;5.00;99.90
10883;DHT22;5494;51.796;10.952;2024-03-07T07:35:29;5.10;99.90
10883;DHT22;5494;51.796;10.952;2024-03-07T07:37:59;5.20;99.90
10883;DHT22;5494;51.796;10.952;2024-03-07T07:40:28;5.20;99.90
10883;DHT22;5494;51.796;10.952;2024-03-07T07:42:58;5.20;99.90
10883;DHT22;5494;51.796;10.952;2024-03-07T07:45:28;5.20;99.90
10883;DHT22;5494;51.796;10.952;2024-03-07T07:47:56;5.70;99.90
10883;DHT22;5494;51.796;10.952;2024-03-07T07:50:25;5.10;99.90
10883;DHT22;5494;51.796;10.952;2024-03-07T07:52:56;5.20;99.90
10883;DHT22;5494;51.796;10.952;2024-03-07T07:55:27;5.20;99.90
10883;DHT22;5494;51.796;10.952;2024-03-07T07:57:57;5.20;99.90
10883;DHT22;5494;51.796;10.952;2024-03-07T08:00:28;5.30;99.90
10883;DHT22;5494;51.796;10.952;2024-03-07T08:02:59;5.30;99.90
10883;DHT22;5494;51.796;10.952;2024-03-07T08:05:30;5.40;99.90
10883;DHT22;5494;51.796;10.952;2024-03-07T08:08:01;5.40;99.90
10883;DHT22;5494;51.796;10.952;2024-03-07T08:10:34;5.40;99.90
10883;DHT22;5494;51.796;10.952;2024-03-07T08:13:05;5.40;99.90
10883;DHT22;5494;51.796;10.952;2024-03-07T08:15:33;5.50;99.90
10883;DHT22;5494;51.796;10.952;2024-03-07T08:18:02;5.60;99.90
10883;DHT22;5494;51.796;10.952;2024-03-07T08:20:36;5.70;99.90
10883;DHT22;5494;51.796;10.952;2024-03-07T08:23:05;5.70;99.90
10883;DHT22;5494;51.796;10.952;2024-03-07T08:25:35;5.80;99.90
10883;DHT22;5494;51.796;10.952;2024-03-07T08:28:03;5.80;99.90
10883;DHT22;5494;51.796;10.952;2024-03-07T08:30:32;5.60;99.90
10883;DHT22;5494;51.796;10.952;2024-03-07T08:33:01;5.60;99.90
10883;DHT22;5494;51.796;10.952;2024-03-07T08:35:32;5.60;99.90
10883;DHT22;5494;51.796;10.952;2024-03-07T08:38:02;5.60;99.90
10883;DHT22;5494;51.796;10.952;2024-03-07T08:40:36;5.70;99.90
10883;DHT22;5494;51.796;10.952;2024-03-07T08:43:04;5.70;99.90
10883;DHT22;5494;51.796;10.952;2024-03-07T08:45:34;5.80;99.90
10883;DHT22;5494;51.796;10.952;2024-03-07T08:48:03;5.80;99.90
10883;DHT22;5494;51.796;10.952;2024-03-07T08:50:34;5.70;99.90
10883;DHT22;5494;51.796;10.952;2024-03-07T08:53:06;5.70;99.90
10883;DHT22;5494;51.796;10.952;2024-03-07T08:55:36;5.70;99.90
10883;DHT22;5494;51.796;10.952;2024-03-07T08:58:05;5.70;99.90
10883;DHT22;5494;51.796;10.952;2024-03-07T09:00:35;5.70;99.90
10883;DHT22;5494;51.796;10.952;2024-03-07T09:03:06;5.60;99.90
10883;DHT22;5494;51.796;10.952;2024-03-07T09:05:38;5.50;99.90
10883;DHT22;5494;51.796;10.952;2024-03-07T09:08:07;5.40;99.90
10883;DHT22;5494;51.796;10.952;2024-03-07T09:10:36;5.50;99.90
10883;DHT22;5494;51.796;10.952;2024-03-07T09:13:08;5.60;99.90
10883;DHT22;5494;51.796;10.952;2024-03-07T09:15:37;5.50;99.90
10883;DHT22;5494;51.796;10.952;2024-03-07T09:18:06;5.50;99.90
10883;DHT22;5494;51.796;10.952;2024-03-07T09:20:35;5.60;99.90
10883;DHT22;5494;51.796;10.952;2024-03-07T09:23:03;5.60;99.90
10883;DHT22;5494;51.796;10.952;2024-03-07T09:25:33;5.70;99.90
10883;DHT22;5494;51.796;10.952;2024-03-07T09:28:02;5.70;99.90
10883;DHT22;5494;51.796;10.952;2024-03-07T09:30:33;6.00;99.90
10883;DHT22;5494;51.796;10.952;2024-03-07T09:33:05;6.30;99.90
10883;DHT22;5494;51.796;10.952;2024-03-07T09:35:37;6.30;99.90
10883;DHT22;5494;51.796;10.952;2024-03-07T09:38:06;6.50;99.90
10883;DHT22;5494;51.796;10.952;2024-03-07T09:40:34;6.40;99.90
10883;DHT22;5494;51.796;10.952;2024-03-07T09:43:04;6.40;99.90
10883;DHT22;5494;51.796;10.952;2024-03-07T09:45:37;6.40;99.90
10883;DHT22;5494;51.796;10.952;2024-03-07T09:48:07;6.50;99.90
10883;DHT22;5494;51.796;10.952;2024-03-07T09:50:36;6.40;99.90
10883;DHT22;5494;51.796;10.952;2024-03-07T09:53:06;6.20;99.90
10883;DHT22;5494;51.796;10.952;2024-03-07T09:55:35;6.30;99.90
10883;DHT22;5494;51.796;10.952;2024-03-07T09:58:05;6.30;99.90
10883;DHT22;5494;51.796;10.952;2024-03-07T10:00:36;6.20;99.90
10883;DHT22;5494;51.796;10.952;2024-03-07T10:03:08;6.40;99.90
10883;DHT22;5494;51.796;10.952;2024-03-07T10:05:41;6.50;99.90
10883;DHT22;5494;51.796;10.952;2024-03-07T10:08:09;6.50;1.00
10883;DHT22;5494;51.796;10.952;2024-03-07T10:10:38;6.30;1.00
10883;DHT22;5494;51.796;10.952;2024-03-07T10:13:08;6.10;1.00
10883;DHT22;5494;51.796;10.952;2024-03-07T10:15:36;6.00;1.00
10883;DHT22;5494;51.796;10.952;2024-03-07T10:18:07;6.00;1.00
10883;DHT22;5494;51.796;10.952;2024-03-07T10:20:37;5.90;1.00
10883;DHT22;5494;51.796;10.952;2024-03-07T10:23:06;5.80;1.00
10883;DHT22;5494;51.796;10.952;2024-03-07T10:25:37;4.30;1.00
10883;DHT22;5494;51.796;10.952;2024-03-07T10:28:06;5.80;1.00
10883;DHT22;5494;51.796;10.952;2024-03-07T10:30:40;6.00;1.00
10883;DHT22;5494;51.796;10.952;2024-03-07T10:33:11;6.10;1.00
10883;DHT22;5494;51.796;10.952;2024-03-07T10:35:42;6.00;1.00
10883;DHT22;5494;51.796;10.952;2024-03-07T10:38:10;5.90;1.00
10883;DHT22;5494;51.796;10.952;2024-03-07T10:40:41;5.90;1.00
10883;DHT22;5494;51.796;10.952;2024-03-07T10:43:12;5.90;1.00
10883;DHT22;5494;51.796;10.952;2024-03-07T10:45:44;6.00;1.00
10883;DHT22;5494;51.796;10.952;2024-03-07T10:48:17;6.10;1.00
10883;DHT22;5494;51.796;10.952;2024-03-07T10:51:01;5.90;1.00
10883;DHT22;5494;51.796;10.952;2024-03-07T10:53:49;6.00;99.90
10883;DHT22;5494;51.796;10.952;2024-03-07T10:56:43;6.10;1.00
10883;DHT22;5494;51.796;10.952;2024-03-07T10:59:26;6.10;1.00
10883;DHT22;5494;51.796;10.952;2024-03-07T11:01:59;5.90;99.90
10883;DHT22;5494;51.796;10.952;2024-03-07T11:04:40;6.10;99.90
10883;DHT22;5494;51.796;10.952;2024-03-07T11:07:08;6.00;99.90
10883;DHT22;5494;51.796;10.952;2024-03-07T11:09:38;5.80;12.20
10883;DHT22;5494;51.796;10.952;2024-03-07T11:12:09;5.80;1.00
10883;DHT22;5494;51.796;10.952;2024-03-07T11:14:42;6.00;1.00
10883;DHT22;5494;51.796;10.952;2024-03-07T11:17:13;6.20;1.00
10883;DHT22;5494;51.796;10.952;2024-03-07T11:19:42;6.30;1.00
10883;DHT22;5494;51.796;10.952;2024-03-07T11:22:28;6.10;99.90
10883;DHT22;5494;51.796;10.952;2024-03-07T11:25:02;5.90;99.90
10883;DHT22;5494;51.796;10.952;2024-03-07T11:27:36;6.00;99.80
10883;DHT22;5494;51.796;10.952;2024-03-07T11:30:08;6.00;1.00
10883;DHT22;5494;51.796;10.952;2024-03-07T11:32:38;6.00;99.90
10883;DHT22;5494;51.796;10.952;2024-03-07T11:35:12;6.00;99.90
10883;DHT22;5494;51.796;10.952;2024-03-07T11:37:42;5.90;99.90
10883;DHT22;5494;51.796;10.952;2024-03-07T11:43:15;5.90;1.00
10883;DHT22;5494;51.796;10.952;2024-03-07T11:45:45;6.10;1.00
10883;DHT22;5494;51.796;10.952;2024-03-07T11:48:18;6.30;1.00
10883;DHT22;5494;51.796;10.952;2024-03-07T11:50:48;6.40;1.00
10883;DHT22;5494;51.796;10.952;2024-03-07T11:53:17;6.60;1.00
10883;DHT22;5494;51.796;10.952;2024-03-07T11:55:45;6.70;1.00
10883;DHT22;5494;51.796;10.952;2024-03-07T11:58:16;6.80;99.90
10883;DHT22;5494;51.796;10.952;2024-03-07T12:00:51;7.00;99.90
10883;DHT22;5494;51.796;10.952;2024-03-07T12:03:21;7.30;1.00
10883;DHT22;5494;51.796;10.952;2024-03-07T12:05:50;7.40;99.90
10883;DHT22;5494;51.796;10.952;2024-03-07T12:08:19;7.20;17.60
10883;DHT22;5494;51.796;10.952;2024-03-07T12:10:49;7.20;1.00
10883;DHT22;5494;51.796;10.952;2024-03-07T12:13:20;7.10;1.00
10883;DHT22;5494;51.796;10.952;2024-03-07T12:15:52;6.80;1.00
10883;DHT22;5494;51.796;10.952;2024-03-07T12:18:23;6.90;99.90
10883;DHT22;5494;51.796;10.952;2024-03-07T12:20:53;6.70;1.00
10883;DHT22;5494;51.796;10.952;2024-03-07T12:23:23;6.80;99.90
10883;DHT22;5494;51.796;10.952;2024-03-07T12:26:00;6.60;1.00
10883;DHT22;5494;51.796;10.952;2024-03-07T12:28:29;6.80;99.90
10883;DHT22;5494;51.796;10.952;2024-03-07T12:31:01;7.00;94.20
10883;DHT22;5494;51.796;10.952;2024-03-07T12:33:31;7.30;99.90
10883;DHT22;5494;51.796;10.952;2024-03-07T12:36:06;7.40;99.90
10883;DHT22;5494;51.796;10.952;2024-03-07T12:38:36;7.10;1.00
10883;DHT22;5494;51.796;10.952;2024-03-07T12:41:08;6.80;21.00
10883;DHT22;5494;51.796;10.952;2024-03-07T12:43:43;6.70;1.00
10883;DHT22;5494;51.796;10.952;2024-03-07T12:46:14;6.80;1.00
10883;DHT22;5494;51.796;10.952;2024-03-07T12:48:43;6.70;99.90
10883;DHT22;5494;51.796;10.952;2024-03-07T12:51:14;6.70;99.90
10883;DHT22;5494;51.796;10.952;2024-03-07T12:53:46;6.90;1.00
10883;DHT22;5494;51.796;10.952;2024-03-07T12:56:16;7.00;1.00
10883;DHT22;5494;51.796;10.952;2024-03-07T12:58:47;6.90;1.00
10883;DHT22;5494;51.796;10.952;2024-03-07T13:01:18;6.80;99.90
10883;DHT22;5494;51.796;10.952;2024-03-07T13:03:47;7.00;99.90
10883;DHT22;5494;51.796;10.952;2024-03-07T13:06:16;6.90;99.90
10883;DHT22;5494;51.796;10.952;2024-03-07T13:08:53;6.80;1.00
10883;DHT22;5494;51.796;10.952;2024-03-07T13:11:23;6.60;54.80
10883;DHT22;5494;51.796;10.952;2024-03-07T13:13:54;6.70;1.00
10883;DHT22;5494;51.796;10.952;2024-03-07T13:16:24;6.50;99.90
10883;DHT22;5494;51.796;10.952;2024-03-07T13:18:57;6.40;99.90
10883;DHT22;5494;51.796;10.952;2024-03-07T13:21:25;6.40;99.90
10883;DHT22;5494;51.796;10.952;2024-03-07T13:23:54;6.40;27.50
10883;DHT22;5494;51.796;10.952;2024-03-07T13:26:24;6.40;1.00
10883;DHT22;5494;51.796;10.952;2024-03-07T13:28:53;6.50;99.90
10883;DHT22;5494;51.796;10.952;2024-03-07T13:31:23;6.70;97.00
10883;DHT22;5494;51.796;10.952;2024-03-07T13:33:53;6.90;1.00
10883;DHT22;5494;51.796;10.952;2024-03-07T13:36:21;6.90;1.00
10883;DHT22;5494;51.796;10.952;2024-03-07T13:38:53;7.30;31.10
10883;DHT22;5494;51.796;10.952;2024-03-07T13:41:23;6.60;1.00
10883;DHT22;5494;51.796;10.952;2024-03-07T13:43:52;6.50;99.90
10883;DHT22;5494;51.796;10.952;2024-03-07T13:46:20;6.60;1.00
10883;DHT22;5494;51.796;10.952;2024-03-07T13:48:50;6.60;99.90
10883;DHT22;5494;51.796;10.952;2024-03-07T13:51:18;6.70;99.90
10883;DHT22;5494;51.796;10.952;2024-03-07T13:53:47;6.70;99.90
10883;DHT22;5494;51.796;10.952;2024-03-07T13:56:45;6.70;1.00
10883;DHT22;5494;51.796;10.952;2024-03-07T13:59:37;6.70;99.90
10883;DHT22;5494;51.796;10.952;2024-03-07T14:02:42;6.60;1.00
10883;DHT22;5494;51.796;10.952;2024-03-07T14:05:54;6.50;99.90
10883;DHT22;5494;51.796;10.952;2024-03-07T14:12:05;6.50;99.90
10883;DHT22;5494;51.796;10.952;2024-03-07T14:15:28;6.70;99.90
10883;DHT22;5494;51.796;10.952;2024-03-07T14:25:19;6.50;99.90
10883;DHT22;5494;51.796;10.952;2024-03-07T14:28:14;6.40;1.00
10883;DHT22;5494;51.796;10.952;2024-03-07T14:30:57;6.20;84.30
10883;DHT22;5494;51.796;10.952;2024-03-07T14:33:29;6.10;1.00
10883;DHT22;5494;51.796;10.952;2024-03-07T14:36:05;6.00;1.00
10883;DHT22;5494;51.796;10.952;2024-03-07T14:38:46;6.00;99.90
10883;DHT22;5494;51.796;10.952;2024-03-07T14:41:18;6.10;99.90
10883;DHT22;5494;51.796;10.952;2024-03-07T14:43:49;6.30;99.90
10883;DHT22;5494;51.796;10.952;2024-03-07T14:46:18;6.30;99.90
10883;DHT22;5494;51.796;10.952;2024-03-07T14:48:47;6.30;99.90
10883;DHT22;5494;51.796;10.952;2024-03-07T14:51:15;6.30;1.00
10883;DHT22;5494;51.796;10.952;2024-03-07T14:53:45;6.30;1.00
10883;DHT22;5494;51.796;10.952;2024-03-07T14:56:14;6.30;1.00
10883;DHT22;5494;51.796;10.952;2024-03-07T14:58:42;6.20;1.00
10883;DHT22;5494;51.796;10.952;2024-03-07T15:01:09;6.20;1.00
10883;DHT22;5494;51.796;10.952;2024-03-07T15:03:39;6.20;1.00
10883;DHT22;5494;51.796;10.952;2024-03-07T15:06:12;6.20;1.00
10883;DHT22;5494;51.796;10.952;2024-03-07T15:08:41;6.10;1.00
10883;DHT22;5494;51.796;10.952;2024-03-07T15:11:14;6.00;99.90
10883;DHT22;5494;51.796;10.952;2024-03-07T15:13:48;6.10;1.00
10883;DHT22;5494;51.796;10.952;2024-03-07T15:16:16;6.10;1.00
10883;DHT22;5494;51.796;10.952;2024-03-07T15:18:59;6.20;99.90
10883;DHT22;5494;51.796;10.952;2024-03-07T15:21:27;6.20;1.00
10883;DHT22;5494;51.796;10.952;2024-03-07T15:23:56;6.10;1.00
10883;DHT22;5494;51.796;10.952;2024-03-07T15:26:26;6.10;1.00
10883;DHT22;5494;51.796;10.952;2024-03-07T15:28:54;6.00;1.00
10883;DHT22;5494;51.796;10.952;2024-03-07T15:31:24;6.10;1.00
10883;DHT22;5494;51.796;10.952;2024-03-07T15:33:52;6.20;1.00
10883;DHT22;5494;51.796;10.952;2024-03-07T15:36:21;6.10;99.90
10883;DHT22;5494;51.796;10.952;2024-03-07T15:38:50;6.10;1.00
10883;DHT22;5494;51.796;10.952;2024-03-07T15:41:18;6.10;36.70
10883;DHT22;5494;51.796;10.952;2024-03-07T15:43:48;6.10;99.90
10883;DHT22;5494;51.796;10.952;2024-03-07T15:46:16;6.10;99.90
10883;DHT22;5494;51.796;10.952;2024-03-07T15:48:45;6.00;1.00
10883;DHT22;5494;51.796;10.952;2024-03-07T15:51:16;6.00;40.10
10883;DHT22;5494;51.796;10.952;2024-03-07T15:53:45;6.00;1.00
10883;DHT22;5494;51.796;10.952;2024-03-07T15:56:13;6.00;99.90
10883;DHT22;5494;51.796;10.952;2024-03-07T15:58:42;5.90;15.90
10883;DHT22;5494;51.796;10.952;2024-03-07T16:01:13;5.90;64.30
10883;DHT22;5494;51.796;10.952;2024-03-07T16:03:43;5.90;14.40
10883;DHT22;5494;51.796;10.952;2024-03-07T16:06:13;6.00;1.00
10883;DHT22;5494;51.796;10.952;2024-03-07T16:08:43;5.90;1.00
10883;DHT22;5494;51.796;10.952;2024-03-07T16:11:11;5.90;1.00
10883;DHT22;5494;51.796;10.952;2024-03-07T16:13:40;5.80;1.00
10883;DHT22;5494;51.796;10.952;2024-03-07T16:16:08;5.80;99.90
10883;DHT22;5494;51.796;10.952;2024-03-07T16:18:38;5.80;1.00
10883;DHT22;5494;51.796;10.952;2024-03-07T16:21:06;5.80;1.00
10883;DHT22;5494;51.796;10.952;2024-03-07T16:23:34;4.10;57.90
10883;DHT22;5494;51.796;10.952;2024-03-07T16:26:02;5.70;32.00
10883;DHT22;5494;51.796;10.952;2024-03-07T16:28:32;5.70;99.90